Prince Bio — FU7879 — position and weather

sailwx.info

Track history (hours):
 
Tides and Currents Weather Stations Pressure Air Temp Water Temp Dewpoint Dewpoint Depression Visibility Wind Speed Wind Dir Waves Ship Positions

Prince Bio

Last reported at 2017-Aug-22 09:19 UTC. Time now 2018-Feb-21 07:21 UTC.
Position N 48°52' W 002°57'.
Warning: this ship's position is months out of date.

Length 12 m.

Type: Pleasure craft. MMSI: 227545110.

Date/timePositionNaut miles runAvg speedWind from/ knotsBaromVisibWave heightAir tempDewpointWater temp
2017-Aug-22 09:19N 48°52' W 002°57'  
2017-Aug-18 08:15N 48°35' W 004°45'1 4.5
2017-Aug-18 07:56N 48°34' W 004°46'2 5.1
2017-Aug-18 07:30N 48°33' W 004°48'2 4.7
2017-Aug-18 07:00N 48°30' W 004°49'3 0.7
2017-Aug-18 02:48N 48°28' W 004°45'0 0.0
2017-Aug-17 12:01N 48°28' W 004°45'0 0.1
2017-Aug-17 11:58N 48°28' W 004°45'2 4.3
2017-Aug-17 11:30N 48°28' W 004°48'2 4.7
2017-Aug-17 10:58N 48°26' W 004°49'4 5.8
2017-Aug-17 10:12N 48°21' W 004°48'2 6.7
2017-Aug-17 09:58N 48°20' W 004°47'3 6.0
2017-Aug-17 09:30N 48°19' W 004°43'3 5.1
2017-Aug-17 09:01N 48°19' W 004°39'3 5.9
2017-Aug-17 08:31N 48°20' W 004°35'2 4.7
2017-Aug-17 08:00N 48°21' W 004°31'3 5.6
2017-Aug-17 07:31N 48°19' W 004°28'1 2.7
2017-Aug-17 07:00N 48°20' W 004°26'3 5.3
2017-Aug-17 06:30N 48°18' W 004°22'3 5.7
2017-Aug-17 05:53N 48°18' W 004°17'2 0.2
2017-Aug-16 15:22N 48°16' W 004°16'1 1.1
2017-Aug-16 14:08N 48°17' W 004°15'1 6.5
2017-Aug-16 14:00N 48°18' W 004°16'3 5.3
2017-Aug-16 13:30N 48°19' W 004°20'3 6.7
2017-Aug-16 13:00N 48°19' W 004°25'3 6.5
2017-Aug-16 12:30N 48°20' W 004°29'2 3.6
2017-Aug-16 12:00N 48°22' W 004°29'1 1.9
2017-Aug-16 11:30N 48°23' W 004°29'0 0.2
2017-Aug-16 11:00N 48°23' W 004°29'0 0.0
2017-Aug-16 10:30N 48°23' W 004°29'0 0.0
2017-Aug-16 10:00N 48°23' W 004°29'0 0.0
2017-Aug-16 09:30N 48°23' W 004°29'0 0.0
2017-Aug-16 09:00N 48°23' W 004°29'0 0.0
2017-Aug-16 08:30N 48°23' W 004°29'0 0.0
2017-Aug-16 08:00N 48°23' W 004°29'0 0.0
2017-Aug-16 07:30N 48°23' W 004°29'0 0.0
2017-Aug-16 07:00N 48°23' W 004°29'0 0.0
2017-Aug-16 06:30N 48°23' W 004°29'0 0.0
2017-Aug-16 06:00N 48°23' W 004°29'0 0.0
2017-Aug-16 05:30N 48°23' W 004°29'0 0.0
2017-Aug-16 05:00N 48°23' W 004°29'0 0.0
2017-Aug-16 04:30N 48°23' W 004°29'0 0.0
2017-Aug-16 04:00N 48°23' W 004°29'0 0.0
2017-Aug-16 03:30N 48°23' W 004°29'0 0.0
2017-Aug-16 03:00N 48°23' W 004°29'0 0.0
2017-Aug-16 02:30N 48°23' W 004°29'0 0.0
2017-Aug-16 02:00N 48°23' W 004°29'0 0.0
2017-Aug-16 01:30N 48°23' W 004°29'0 0.0
2017-Aug-16 01:00N 48°23' W 004°29'0 0.0
2017-Aug-16 00:30N 48°23' W 004°29'0 0.0
2017-Aug-16 00:00N 48°23' W 004°29'0 0.0
2017-Aug-15 23:30N 48°23' W 004°29'0 0.0
2017-Aug-15 23:00N 48°23' W 004°29'0 0.0
2017-Aug-15 22:30N 48°23' W 004°29'0 0.0
2017-Aug-15 22:00N 48°23' W 004°29'0 0.0
2017-Aug-15 21:30N 48°23' W 004°29'0 0.0
2017-Aug-15 21:00N 48°23' W 004°29'0 0.0
2017-Aug-15 20:30N 48°23' W 004°29'0 0.0
2017-Aug-15 20:00N 48°23' W 004°29'0 0.0
2017-Aug-15 19:30N 48°23' W 004°29'0 0.0
2017-Aug-15 19:00N 48°23' W 004°29'0 0.0
2017-Aug-15 18:30N 48°23' W 004°29'0 0.0
2017-Aug-15 18:00N 48°23' W 004°29'0 0.0
2017-Aug-15 17:30N 48°23' W 004°29'0 0.0
2017-Aug-15 17:00N 48°23' W 004°29'0 0.0
2017-Aug-15 16:30N 48°23' W 004°29'0 0.0
2017-Aug-15 16:00N 48°23' W 004°29'0 0.0
2017-Aug-15 15:30N 48°23' W 004°29'0 0.0
2017-Aug-15 15:00N 48°23' W 004°29'0 0.0
2017-Aug-15 14:30N 48°23' W 004°29'0 0.0
2017-Aug-15 14:00N 48°23' W 004°29'0 0.0
2017-Aug-15 13:30N 48°23' W 004°29'0 0.0
2017-Aug-15 13:00N 48°23' W 004°29'0 0.0
2017-Aug-15 12:31N 48°23' W 004°29'0 0.0
2017-Aug-15 12:00N 48°23' W 004°29'0 0.0
2017-Aug-15 11:30N 48°23' W 004°29'0 0.0
2017-Aug-15 11:00N 48°23' W 004°29'0 0.0
2017-Aug-15 10:30N 48°23' W 004°29'0 0.0
2017-Aug-15 10:00N 48°23' W 004°29'0 0.0
2017-Aug-15 09:30N 48°23' W 004°29'0 0.0
2017-Aug-15 09:00N 48°23' W 004°29'0 0.0
2017-Aug-15 08:30N 48°23' W 004°29'0 0.0
2017-Aug-15 08:01N 48°23' W 004°29'0 0.0
2017-Aug-15 07:30N 48°23' W 004°29'0 0.0
2017-Aug-15 07:00N 48°23' W 004°29'0 0.0
2017-Aug-15 06:30N 48°23' W 004°29'0 0.0
2017-Aug-15 06:00N 48°23' W 004°29'0 0.0
2017-Aug-15 05:30N 48°23' W 004°29'0 0.0
2017-Aug-15 05:00N 48°23' W 004°29'0 0.0
2017-Aug-15 04:30N 48°23' W 004°29'0 0.0
2017-Aug-15 04:00N 48°23' W 004°29'0 0.0
2017-Aug-15 03:30N 48°23' W 004°29'0 0.0
2017-Aug-15 03:00N 48°23' W 004°29'0 0.0
2017-Aug-15 02:30N 48°23' W 004°29'0 0.0
2017-Aug-15 02:00N 48°23' W 004°29'0 0.0
2017-Aug-15 01:30N 48°23' W 004°29'0 0.0
2017-Aug-15 01:00N 48°23' W 004°29'0 0.0
2017-Aug-15 00:30N 48°23' W 004°29'0 0.0
2017-Aug-15 00:00N 48°23' W 004°29'0 0.0
2017-Aug-14 23:30N 48°23' W 004°29'0 0.0
2017-Aug-14 23:00N 48°23' W 004°29'0 0.0
2017-Aug-14 22:30N 48°23' W 004°29'0 0.0
2017-Aug-14 22:00N 48°23' W 004°29'0 0.0
2017-Aug-14 21:30N 48°23' W 004°29'0 0.0
2017-Aug-14 21:00N 48°23' W 004°29'0 0.0
2017-Aug-14 20:30N 48°23' W 004°29'0 0.0
2017-Aug-14 20:00N 48°23' W 004°29'0 0.0
2017-Aug-14 19:30N 48°23' W 004°29'0 0.0
2017-Aug-14 19:00N 48°23' W 004°29'0 0.0
2017-Aug-14 18:30N 48°23' W 004°29'0 0.0
2017-Aug-14 18:00N 48°23' W 004°29'0 0.0
2017-Aug-14 17:30N 48°23' W 004°29'0 0.0
2017-Aug-14 17:00N 48°23' W 004°29'0 0.0
2017-Aug-14 16:30N 48°23' W 004°29'0 0.0
2017-Aug-14 16:00N 48°23' W 004°29'2 3.6
2017-Aug-14 15:30N 48°21' W 004°31'3 6.8
2017-Aug-14 15:01N 48°20' W 004°36'4 6.8
2017-Aug-14 14:28N 48°20' W 004°41'3 6.4
2017-Aug-14 13:58N 48°19' W 004°46'6 6.3
2017-Aug-14 12:58N 48°19' W 004°56'6 5.7
2017-Aug-14 11:59N 48°24' W 004°56'1 0.1
2017-Aug-13 23:53N 48°24' W 004°57'0 0.0
2017-Aug-13 17:53N 48°24' W 004°57'3 0.1
2017-Aug-12 12:39N 48°27' W 004°59'1 7.4
2017-Aug-12 12:27N 48°27' W 004°57'3 7.2
2017-Aug-12 12:00N 48°28' W 004°52'4 6.8
2017-Aug-12 11:26N 48°28' W 004°46'1 0.3
2017-Aug-12 09:35N 48°28' W 004°45'0 0.0
2017-Aug-12 09:23N 48°28' W 004°45'  
Track history (hours):
 
Tides and Currents Weather Stations Pressure Air Temp Water Temp Dewpoint Dewpoint Depression Visibility Wind Speed Wind Dir Waves Ship Positions

Prince Bio

Last reported at 2017-Aug-22 09:19 UTC. Time now 2018-Feb-21 07:21 UTC.
Position N 48°52' W 002°57'.
Warning: this ship's position is months out of date.

Length 12 m.

Type: Pleasure craft. MMSI: 227545110.

Date/timePositionNaut miles runAvg speedWind from/ knotsBaromVisibWave heightAir tempDewpointWater temp
2017-Aug-22 09:19N 48°52' W 002°57'  
2017-Aug-18 08:15N 48°35' W 004°45'1 4.5
2017-Aug-18 07:56N 48°34' W 004°46'2 5.1
2017-Aug-18 07:30N 48°33' W 004°48'2 4.7
2017-Aug-18 07:00N 48°30' W 004°49'3 0.7
2017-Aug-18 02:48N 48°28' W 004°45'0 0.0
2017-Aug-17 12:01N 48°28' W 004°45'0 0.1
2017-Aug-17 11:58N 48°28' W 004°45'2 4.3
2017-Aug-17 11:30N 48°28' W 004°48'2 4.7
2017-Aug-17 10:58N 48°26' W 004°49'4 5.8
2017-Aug-17 10:12N 48°21' W 004°48'2 6.7
2017-Aug-17 09:58N 48°20' W 004°47'3 6.0
2017-Aug-17 09:30N 48°19' W 004°43'3 5.1
2017-Aug-17 09:01N 48°19' W 004°39'3 5.9
2017-Aug-17 08:31N 48°20' W 004°35'2 4.7
2017-Aug-17 08:00N 48°21' W 004°31'3 5.6
2017-Aug-17 07:31N 48°19' W 004°28'1 2.7
2017-Aug-17 07:00N 48°20' W 004°26'3 5.3
2017-Aug-17 06:30N 48°18' W 004°22'3 5.7
2017-Aug-17 05:53N 48°18' W 004°17'2 0.2
2017-Aug-16 15:22N 48°16' W 004°16'1 1.1
2017-Aug-16 14:08N 48°17' W 004°15'1 6.5
2017-Aug-16 14:00N 48°18' W 004°16'3 5.3
2017-Aug-16 13:30N 48°19' W 004°20'3 6.7
2017-Aug-16 13:00N 48°19' W 004°25'3 6.5
2017-Aug-16 12:30N 48°20' W 004°29'2 3.6
2017-Aug-16 12:00N 48°22' W 004°29'1 1.9
2017-Aug-16 11:30N 48°23' W 004°29'0 0.2
2017-Aug-16 11:00N 48°23' W 004°29'0 0.0
2017-Aug-16 10:30N 48°23' W 004°29'0 0.0
2017-Aug-16 10:00N 48°23' W 004°29'0 0.0
2017-Aug-16 09:30N 48°23' W 004°29'0 0.0
2017-Aug-16 09:00N 48°23' W 004°29'0 0.0
2017-Aug-16 08:30N 48°23' W 004°29'0 0.0
2017-Aug-16 08:00N 48°23' W 004°29'0 0.0
2017-Aug-16 07:30N 48°23' W 004°29'0 0.0
2017-Aug-16 07:00N 48°23' W 004°29'0 0.0
2017-Aug-16 06:30N 48°23' W 004°29'0 0.0
2017-Aug-16 06:00N 48°23' W 004°29'0 0.0
2017-Aug-16 05:30N 48°23' W 004°29'0 0.0
2017-Aug-16 05:00N 48°23' W 004°29'0 0.0
2017-Aug-16 04:30N 48°23' W 004°29'0 0.0
2017-Aug-16 04:00N 48°23' W 004°29'0 0.0
2017-Aug-16 03:30N 48°23' W 004°29'0 0.0
2017-Aug-16 03:00N 48°23' W 004°29'0 0.0
2017-Aug-16 02:30N 48°23' W 004°29'0 0.0
2017-Aug-16 02:00N 48°23' W 004°29'0 0.0
2017-Aug-16 01:30N 48°23' W 004°29'0 0.0
2017-Aug-16 01:00N 48°23' W 004°29'0 0.0
2017-Aug-16 00:30N 48°23' W 004°29'0 0.0
2017-Aug-16 00:00N 48°23' W 004°29'0 0.0
2017-Aug-15 23:30N 48°23' W 004°29'0 0.0
2017-Aug-15 23:00N 48°23' W 004°29'0 0.0
2017-Aug-15 22:30N 48°23' W 004°29'0 0.0
2017-Aug-15 22:00N 48°23' W 004°29'0 0.0
2017-Aug-15 21:30N 48°23' W 004°29'0 0.0
2017-Aug-15 21:00N 48°23' W 004°29'0 0.0
2017-Aug-15 20:30N 48°23' W 004°29'0 0.0
2017-Aug-15 20:00N 48°23' W 004°29'0 0.0
2017-Aug-15 19:30N 48°23' W 004°29'0 0.0
2017-Aug-15 19:00N 48°23' W 004°29'0 0.0
2017-Aug-15 18:30N 48°23' W 004°29'0 0.0
2017-Aug-15 18:00N 48°23' W 004°29'0 0.0
2017-Aug-15 17:30N 48°23' W 004°29'0 0.0
2017-Aug-15 17:00N 48°23' W 004°29'0 0.0
2017-Aug-15 16:30N 48°23' W 004°29'0 0.0
2017-Aug-15 16:00N 48°23' W 004°29'0 0.0
2017-Aug-15 15:30N 48°23' W 004°29'0 0.0
2017-Aug-15 15:00N 48°23' W 004°29'0 0.0
2017-Aug-15 14:30N 48°23' W 004°29'0 0.0
2017-Aug-15 14:00N 48°23' W 004°29'0 0.0
2017-Aug-15 13:30N 48°23' W 004°29'0 0.0
2017-Aug-15 13:00N 48°23' W 004°29'0 0.0
2017-Aug-15 12:31N 48°23' W 004°29'0 0.0
2017-Aug-15 12:00N 48°23' W 004°29'0 0.0
2017-Aug-15 11:30N 48°23' W 004°29'0 0.0
2017-Aug-15 11:00N 48°23' W 004°29'0 0.0
2017-Aug-15 10:30N 48°23' W 004°29'0 0.0
2017-Aug-15 10:00N 48°23' W 004°29'0 0.0
2017-Aug-15 09:30N 48°23' W 004°29'0 0.0
2017-Aug-15 09:00N 48°23' W 004°29'0 0.0
2017-Aug-15 08:30N 48°23' W 004°29'0 0.0
2017-Aug-15 08:01N 48°23' W 004°29'0 0.0
2017-Aug-15 07:30N 48°23' W 004°29'0 0.0
2017-Aug-15 07:00N 48°23' W 004°29'0 0.0
2017-Aug-15 06:30N 48°23' W 004°29'0 0.0
2017-Aug-15 06:00N 48°23' W 004°29'0 0.0
2017-Aug-15 05:30N 48°23' W 004°29'0 0.0
2017-Aug-15 05:00N 48°23' W 004°29'0 0.0
2017-Aug-15 04:30N 48°23' W 004°29'0 0.0
2017-Aug-15 04:00N 48°23' W 004°29'0 0.0
2017-Aug-15 03:30N 48°23' W 004°29'0 0.0
2017-Aug-15 03:00N 48°23' W 004°29'0 0.0
2017-Aug-15 02:30N 48°23' W 004°29'0 0.0
2017-Aug-15 02:00N 48°23' W 004°29'0 0.0
2017-Aug-15 01:30N 48°23' W 004°29'0 0.0
2017-Aug-15 01:00N 48°23' W 004°29'0 0.0
2017-Aug-15 00:30N 48°23' W 004°29'0 0.0
2017-Aug-15 00:00N 48°23' W 004°29'0 0.0
2017-Aug-14 23:30N 48°23' W 004°29'0 0.0
2017-Aug-14 23:00N 48°23' W 004°29'0 0.0
2017-Aug-14 22:30N 48°23' W 004°29'0 0.0
2017-Aug-14 22:00N 48°23' W 004°29'0 0.0
2017-Aug-14 21:30N 48°23' W 004°29'0 0.0
2017-Aug-14 21:00N 48°23' W 004°29'0 0.0
2017-Aug-14 20:30N 48°23' W 004°29'0 0.0
2017-Aug-14 20:00N 48°23' W 004°29'0 0.0
2017-Aug-14 19:30N 48°23' W 004°29'0 0.0
2017-Aug-14 19:00N 48°23' W 004°29'0 0.0
2017-Aug-14 18:30N 48°23' W 004°29'0 0.0
2017-Aug-14 18:00N 48°23' W 004°29'0 0.0
2017-Aug-14 17:30N 48°23' W 004°29'0 0.0
2017-Aug-14 17:00N 48°23' W 004°29'0 0.0
2017-Aug-14 16:30N 48°23' W 004°29'0 0.0
2017-Aug-14 16:00N 48°23' W 004°29'2 3.6
2017-Aug-14 15:30N 48°21' W 004°31'3 6.8
2017-Aug-14 15:01N 48°20' W 004°36'4 6.8
2017-Aug-14 14:28N 48°20' W 004°41'3 6.4
2017-Aug-14 13:58N 48°19' W 004°46'6 6.3
2017-Aug-14 12:58N 48°19' W 004°56'6 5.7
2017-Aug-14 11:59N 48°24' W 004°56'1 0.1
2017-Aug-13 23:53N 48°24' W 004°57'0 0.0
2017-Aug-13 17:53N 48°24' W 004°57'3 0.1
2017-Aug-12 12:39N 48°27' W 004°59'1 7.4
2017-Aug-12 12:27N 48°27' W 004°57'3 7.2
2017-Aug-12 12:00N 48°28' W 004°52'4 6.8
2017-Aug-12 11:26N 48°28' W 004°46'1 0.3
2017-Aug-12 09:35N 48°28' W 004°45'0 0.0
2017-Aug-12 09:23N 48°28' W 004°45'  

Dump ship's entire track history